sensor_id;sensor_type;location;lat;lon;timestamp;P1;durP1;ratioP1;P2;durP2;ratioP2
80136;SDS011;69466;55.948;37.484;2023-06-22T00:02:00;18.95;;;11.00;;
80136;SDS011;69466;55.948;37.484;2023-06-22T00:04:26;15.85;;;10.77;;
80136;SDS011;69466;55.948;37.484;2023-06-22T00:06:52;18.98;;;10.57;;
80136;SDS011;69466;55.948;37.484;2023-06-22T00:09:18;21.48;;;10.63;;
80136;SDS011;69466;55.948;37.484;2023-06-22T00:11:44;18.80;;;10.73;;
80136;SDS011;69466;55.948;37.484;2023-06-22T00:14:10;18.63;;;10.20;;
80136;SDS011;69466;55.948;37.484;2023-06-22T00:16:36;18.40;;;9.90;;
80136;SDS011;69466;55.948;37.484;2023-06-22T00:19:02;14.73;;;9.88;;
80136;SDS011;69466;55.948;37.484;2023-06-22T00:21:29;18.52;;;9.95;;
80136;SDS011;69466;55.948;37.484;2023-06-22T00:23:55;21.63;;;11.35;;
80136;SDS011;69466;55.948;37.484;2023-06-22T00:26:22;18.55;;;10.65;;
80136;SDS011;69466;55.948;37.484;2023-06-22T00:28:48;19.88;;;9.73;;
80136;SDS011;69466;55.948;37.484;2023-06-22T00:31:14;17.63;;;10.23;;
80136;SDS011;69466;55.948;37.484;2023-06-22T00:33:40;14.45;;;9.55;;
80136;SDS011;69466;55.948;37.484;2023-06-22T00:36:06;21.85;;;10.35;;
80136;SDS011;69466;55.948;37.484;2023-06-22T00:38:38;16.77;;;9.80;;
80136;SDS011;69466;55.948;37.484;2023-06-22T00:41:07;17.67;;;10.25;;
80136;SDS011;69466;55.948;37.484;2023-06-22T00:43:35;18.05;;;10.40;;
80136;SDS011;69466;55.948;37.484;2023-06-22T00:46:02;16.60;;;9.50;;
80136;SDS011;69466;55.948;37.484;2023-06-22T00:48:28;22.63;;;10.63;;
80136;SDS011;69466;55.948;37.484;2023-06-22T00:50:54;20.83;;;9.43;;
80136;SDS011;69466;55.948;37.484;2023-06-22T00:53:22;18.30;;;10.30;;
80136;SDS011;69466;55.948;37.484;2023-06-22T00:55:48;16.75;;;9.82;;
80136;SDS011;69466;55.948;37.484;2023-06-22T00:58:18;18.85;;;9.88;;
80136;SDS011;69466;55.948;37.484;2023-06-22T01:00:48;19.20;;;10.00;;
80136;SDS011;69466;55.948;37.484;2023-06-22T01:03:14;21.23;;;10.23;;
80136;SDS011;69466;55.948;37.484;2023-06-22T01:05:42;15.43;;;8.45;;
80136;SDS011;69466;55.948;37.484;2023-06-22T01:08:15;18.42;;;9.75;;
80136;SDS011;69466;55.948;37.484;2023-06-22T01:13:53;16.27;;;10.20;;
80136;SDS011;69466;55.948;37.484;2023-06-22T01:16:30;19.60;;;9.75;;
80136;SDS011;69466;55.948;37.484;2023-06-22T01:19:26;19.08;;;9.05;;
80136;SDS011;69466;55.948;37.484;2023-06-22T01:22:05;18.00;;;8.68;;
80136;SDS011;69466;55.948;37.484;2023-06-22T01:24:41;15.88;;;9.30;;
80136;SDS011;69466;55.948;37.484;2023-06-22T01:27:40;16.13;;;9.45;;
80136;SDS011;69466;55.948;37.484;2023-06-22T01:30:18;14.88;;;9.10;;
80136;SDS011;69466;55.948;37.484;2023-06-22T01:32:44;15.57;;;9.23;;
80136;SDS011;69466;55.948;37.484;2023-06-22T01:35:12;20.17;;;10.48;;
80136;SDS011;69466;55.948;37.484;2023-06-22T01:37:38;15.48;;;9.18;;
80136;SDS011;69466;55.948;37.484;2023-06-22T01:40:04;16.45;;;9.40;;
80136;SDS011;69466;55.948;37.484;2023-06-22T01:42:33;17.00;;;9.55;;
80136;SDS011;69466;55.948;37.484;2023-06-22T01:45:00;14.18;;;9.18;;
80136;SDS011;69466;55.948;37.484;2023-06-22T01:47:31;16.40;;;10.00;;
80136;SDS011;69466;55.948;37.484;2023-06-22T01:49:57;15.05;;;8.60;;
80136;SDS011;69466;55.948;37.484;2023-06-22T01:52:24;17.27;;;9.35;;
80136;SDS011;69466;55.948;37.484;2023-06-22T01:54:49;16.33;;;9.40;;
80136;SDS011;69466;55.948;37.484;2023-06-22T01:57:15;17.83;;;9.73;;
80136;SDS011;69466;55.948;37.484;2023-06-22T02:02:21;15.65;;;8.75;;
80136;SDS011;69466;55.948;37.484;2023-06-22T02:04:59;17.73;;;9.18;;
80136;SDS011;69466;55.948;37.484;2023-06-22T02:07:31;15.88;;;7.85;;
80136;SDS011;69466;55.948;37.484;2023-06-22T02:10:02;15.82;;;9.25;;
80136;SDS011;69466;55.948;37.484;2023-06-22T02:12:29;16.67;;;8.57;;
80136;SDS011;69466;55.948;37.484;2023-06-22T02:14:57;17.30;;;9.60;;
80136;SDS011;69466;55.948;37.484;2023-06-22T02:17:24;13.00;;;8.13;;
80136;SDS011;69466;55.948;37.484;2023-06-22T02:19:52;11.60;;;7.78;;
80136;SDS011;69466;55.948;37.484;2023-06-22T02:22:17;15.35;;;8.75;;
80136;SDS011;69466;55.948;37.484;2023-06-22T02:24:43;15.25;;;8.35;;
80136;SDS011;69466;55.948;37.484;2023-06-22T02:27:09;17.30;;;9.20;;
80136;SDS011;69466;55.948;37.484;2023-06-22T02:29:36;17.00;;;9.70;;
80136;SDS011;69466;55.948;37.484;2023-06-22T02:32:02;13.82;;;9.20;;
80136;SDS011;69466;55.948;37.484;2023-06-22T02:34:29;13.77;;;8.13;;
80136;SDS011;69466;55.948;37.484;2023-06-22T02:36:55;17.63;;;8.98;;
80136;SDS011;69466;55.948;37.484;2023-06-22T02:39:21;13.77;;;9.15;;
80136;SDS011;69466;55.948;37.484;2023-06-22T02:41:49;16.63;;;8.43;;
80136;SDS011;69466;55.948;37.484;2023-06-22T02:44:16;15.90;;;9.15;;
80136;SDS011;69466;55.948;37.484;2023-06-22T02:46:42;16.60;;;9.38;;
80136;SDS011;69466;55.948;37.484;2023-06-22T02:49:08;13.13;;;8.75;;
80136;SDS011;69466;55.948;37.484;2023-06-22T02:51:35;12.88;;;7.28;;
80136;SDS011;69466;55.948;37.484;2023-06-22T02:54:06;15.30;;;8.63;;
80136;SDS011;69466;55.948;37.484;2023-06-22T02:56:32;17.02;;;8.77;;
80136;SDS011;69466;55.948;37.484;2023-06-22T02:59:00;13.52;;;8.20;;
80136;SDS011;69466;55.948;37.484;2023-06-22T03:01:28;14.85;;;7.70;;
80136;SDS011;69466;55.948;37.484;2023-06-22T03:03:57;16.90;;;7.60;;
80136;SDS011;69466;55.948;37.484;2023-06-22T03:06:23;16.40;;;7.65;;
80136;SDS011;69466;55.948;37.484;2023-06-22T03:08:59;14.45;;;7.93;;
80136;SDS011;69466;55.948;37.484;2023-06-22T03:11:27;18.27;;;8.40;;
80136;SDS011;69466;55.948;37.484;2023-06-22T03:13:53;18.23;;;8.90;;
80136;SDS011;69466;55.948;37.484;2023-06-22T03:16:19;20.42;;;9.05;;
80136;SDS011;69466;55.948;37.484;2023-06-22T03:18:45;18.90;;;9.07;;
80136;SDS011;69466;55.948;37.484;2023-06-22T03:21:12;18.20;;;8.75;;
80136;SDS011;69466;55.948;37.484;2023-06-22T03:23:38;21.80;;;8.82;;
80136;SDS011;69466;55.948;37.484;2023-06-22T03:26:05;17.55;;;7.82;;
80136;SDS011;69466;55.948;37.484;2023-06-22T03:28:30;21.70;;;8.38;;
80136;SDS011;69466;55.948;37.484;2023-06-22T03:30:59;17.67;;;9.13;;
80136;SDS011;69466;55.948;37.484;2023-06-22T03:33:25;26.25;;;9.32;;
80136;SDS011;69466;55.948;37.484;2023-06-22T03:35:51;19.38;;;7.55;;
80136;SDS011;69466;55.948;37.484;2023-06-22T03:38:17;16.73;;;7.80;;
80136;SDS011;69466;55.948;37.484;2023-06-22T03:40:43;16.92;;;8.88;;
80136;SDS011;69466;55.948;37.484;2023-06-22T03:43:09;12.75;;;7.28;;
80136;SDS011;69466;55.948;37.484;2023-06-22T03:45:34;15.90;;;7.00;;
80136;SDS011;69466;55.948;37.484;2023-06-22T03:48:01;10.95;;;6.35;;
80136;SDS011;69466;55.948;37.484;2023-06-22T03:50:27;12.88;;;6.45;;
80136;SDS011;69466;55.948;37.484;2023-06-22T03:52:53;11.43;;;5.50;;
80136;SDS011;69466;55.948;37.484;2023-06-22T03:55:22;15.27;;;5.90;;
80136;SDS011;69466;55.948;37.484;2023-06-22T03:57:48;12.00;;;5.57;;
80136;SDS011;69466;55.948;37.484;2023-06-22T04:00:13;11.07;;;5.32;;
80136;SDS011;69466;55.948;37.484;2023-06-22T04:02:41;11.95;;;5.80;;
80136;SDS011;69466;55.948;37.484;2023-06-22T04:05:08;10.27;;;5.57;;
80136;SDS011;69466;55.948;37.484;2023-06-22T04:07:34;8.52;;;4.82;;
80136;SDS011;69466;55.948;37.484;2023-06-22T04:10:03;8.68;;;4.93;;
80136;SDS011;69466;55.948;37.484;2023-06-22T04:12:30;14.02;;;4.65;;
80136;SDS011;69466;55.948;37.484;2023-06-22T04:14:55;7.70;;;4.68;;
80136;SDS011;69466;55.948;37.484;2023-06-22T04:17:21;10.80;;;4.90;;
80136;SDS011;69466;55.948;37.484;2023-06-22T04:19:50;7.13;;;4.28;;
80136;SDS011;69466;55.948;37.484;2023-06-22T04:22:16;6.72;;;4.13;;
80136;SDS011;69466;55.948;37.484;2023-06-22T04:24:42;8.45;;;4.10;;
80136;SDS011;69466;55.948;37.484;2023-06-22T04:27:09;9.07;;;4.70;;
80136;SDS011;69466;55.948;37.484;2023-06-22T04:29:34;9.45;;;4.78;;
80136;SDS011;69466;55.948;37.484;2023-06-22T04:32:01;7.43;;;4.10;;
80136;SDS011;69466;55.948;37.484;2023-06-22T04:34:31;9.73;;;4.50;;
80136;SDS011;69466;55.948;37.484;2023-06-22T04:36:57;7.40;;;4.60;;
80136;SDS011;69466;55.948;37.484;2023-06-22T04:39:23;10.93;;;5.15;;
80136;SDS011;69466;55.948;37.484;2023-06-22T04:41:49;8.70;;;4.03;;
80136;SDS011;69466;55.948;37.484;2023-06-22T04:44:17;8.05;;;4.57;;
80136;SDS011;69466;55.948;37.484;2023-06-22T04:46:50;8.27;;;4.40;;
80136;SDS011;69466;55.948;37.484;2023-06-22T04:49:20;9.02;;;4.63;;
80136;SDS011;69466;55.948;37.484;2023-06-22T04:51:47;6.93;;;4.53;;
80136;SDS011;69466;55.948;37.484;2023-06-22T04:54:13;8.27;;;4.47;;
80136;SDS011;69466;55.948;37.484;2023-06-22T04:56:39;7.03;;;4.43;;
80136;SDS011;69466;55.948;37.484;2023-06-22T04:59:06;7.57;;;4.38;;
80136;SDS011;69466;55.948;37.484;2023-06-22T05:01:32;7.07;;;4.10;;
80136;SDS011;69466;55.948;37.484;2023-06-22T05:03:58;5.38;;;3.70;;
80136;SDS011;69466;55.948;37.484;2023-06-22T05:06:26;8.45;;;4.40;;
80136;SDS011;69466;55.948;37.484;2023-06-22T05:08:53;7.78;;;4.10;;
80136;SDS011;69466;55.948;37.484;2023-06-22T05:11:24;8.82;;;4.15;;
80136;SDS011;69466;55.948;37.484;2023-06-22T05:13:50;7.95;;;4.30;;
80136;SDS011;69466;55.948;37.484;2023-06-22T05:16:16;9.35;;;4.30;;
80136;SDS011;69466;55.948;37.484;2023-06-22T05:18:42;7.55;;;4.38;;
80136;SDS011;69466;55.948;37.484;2023-06-22T05:21:08;9.15;;;4.57;;
80136;SDS011;69466;55.948;37.484;2023-06-22T05:23:34;8.10;;;4.30;;
80136;SDS011;69466;55.948;37.484;2023-06-22T05:26:00;11.13;;;4.40;;
80136;SDS011;69466;55.948;37.484;2023-06-22T05:28:26;9.25;;;3.92;;
80136;SDS011;69466;55.948;37.484;2023-06-22T05:30:52;6.95;;;3.65;;
80136;SDS011;69466;55.948;37.484;2023-06-22T05:33:18;8.70;;;3.65;;
80136;SDS011;69466;55.948;37.484;2023-06-22T05:35:44;7.63;;;4.05;;
80136;SDS011;69466;55.948;37.484;2023-06-22T05:38:10;8.45;;;4.30;;
80136;SDS011;69466;55.948;37.484;2023-06-22T05:40:35;8.20;;;4.00;;
80136;SDS011;69466;55.948;37.484;2023-06-22T05:43:01;8.70;;;4.28;;
80136;SDS011;69466;55.948;37.484;2023-06-22T05:45:27;14.38;;;5.18;;
80136;SDS011;69466;55.948;37.484;2023-06-22T05:47:53;10.57;;;4.78;;
80136;SDS011;69466;55.948;37.484;2023-06-22T05:50:19;8.25;;;4.63;;
80136;SDS011;69466;55.948;37.484;2023-06-22T05:52:44;8.75;;;4.28;;
80136;SDS011;69466;55.948;37.484;2023-06-22T05:55:10;7.53;;;3.80;;
80136;SDS011;69466;55.948;37.484;2023-06-22T05:57:36;6.55;;;3.97;;
80136;SDS011;69466;55.948;37.484;2023-06-22T06:00:02;7.18;;;4.20;;
80136;SDS011;69466;55.948;37.484;2023-06-22T06:02:32;8.55;;;4.03;;
80136;SDS011;69466;55.948;37.484;2023-06-22T06:04:59;7.60;;;4.80;;
80136;SDS011;69466;55.948;37.484;2023-06-22T06:07:25;8.73;;;4.32;;
80136;SDS011;69466;55.948;37.484;2023-06-22T06:09:51;8.57;;;4.28;;
80136;SDS011;69466;55.948;37.484;2023-06-22T06:12:17;8.10;;;4.32;;
80136;SDS011;69466;55.948;37.484;2023-06-22T06:14:43;9.93;;;4.85;;
80136;SDS011;69466;55.948;37.484;2023-06-22T06:17:09;10.38;;;4.68;;
80136;SDS011;69466;55.948;37.484;2023-06-22T06:19:34;6.88;;;3.97;;
80136;SDS011;69466;55.948;37.484;2023-06-22T06:22:00;9.02;;;3.83;;
80136;SDS011;69466;55.948;37.484;2023-06-22T06:24:26;7.10;;;4.00;;
80136;SDS011;69466;55.948;37.484;2023-06-22T06:26:52;9.30;;;3.90;;
80136;SDS011;69466;55.948;37.484;2023-06-22T06:29:18;5.63;;;3.85;;
80136;SDS011;69466;55.948;37.484;2023-06-22T06:31:44;6.32;;;3.60;;
80136;SDS011;69466;55.948;37.484;2023-06-22T06:34:10;6.47;;;3.05;;
80136;SDS011;69466;55.948;37.484;2023-06-22T06:36:40;6.45;;;3.50;;
80136;SDS011;69466;55.948;37.484;2023-06-22T06:39:05;7.28;;;4.65;;
80136;SDS011;69466;55.948;37.484;2023-06-22T06:41:31;7.15;;;3.40;;
80136;SDS011;69466;55.948;37.484;2023-06-22T06:43:57;4.88;;;2.67;;
80136;SDS011;69466;55.948;37.484;2023-06-22T06:46:23;7.53;;;3.40;;
80136;SDS011;69466;55.948;37.484;2023-06-22T06:48:49;7.13;;;3.33;;
80136;SDS011;69466;55.948;37.484;2023-06-22T06:51:15;7.38;;;3.55;;
80136;SDS011;69466;55.948;37.484;2023-06-22T06:53:40;5.07;;;2.88;;
80136;SDS011;69466;55.948;37.484;2023-06-22T06:56:06;5.90;;;3.10;;
80136;SDS011;69466;55.948;37.484;2023-06-22T06:58:32;9.77;;;3.40;;
80136;SDS011;69466;55.948;37.484;2023-06-22T07:00:58;5.95;;;3.38;;
80136;SDS011;69466;55.948;37.484;2023-06-22T07:03:24;6.35;;;3.45;;
80136;SDS011;69466;55.948;37.484;2023-06-22T07:05:49;7.28;;;4.10;;
80136;SDS011;69466;55.948;37.484;2023-06-22T07:08:15;9.48;;;2.92;;
80136;SDS011;69466;55.948;37.484;2023-06-22T07:10:41;6.07;;;3.13;;
80136;SDS011;69466;55.948;37.484;2023-06-22T07:13:07;5.63;;;2.90;;
80136;SDS011;69466;55.948;37.484;2023-06-22T07:15:33;7.75;;;3.47;;
80136;SDS011;69466;55.948;37.484;2023-06-22T07:17:58;8.05;;;3.17;;
80136;SDS011;69466;55.948;37.484;2023-06-22T07:20:24;6.88;;;3.45;;
80136;SDS011;69466;55.948;37.484;2023-06-22T07:22:51;5.65;;;3.30;;
80136;SDS011;69466;55.948;37.484;2023-06-22T07:25:17;6.13;;;3.00;;
80136;SDS011;69466;55.948;37.484;2023-06-22T07:27:45;10.60;;;3.25;;
80136;SDS011;69466;55.948;37.484;2023-06-22T07:30:21;6.80;;;3.13;;
80136;SDS011;69466;55.948;37.484;2023-06-22T07:32:47;4.93;;;3.28;;
80136;SDS011;69466;55.948;37.484;2023-06-22T07:35:13;6.07;;;3.78;;
80136;SDS011;69466;55.948;37.484;2023-06-22T07:37:39;5.57;;;3.17;;
80136;SDS011;69466;55.948;37.484;2023-06-22T07:40:05;6.57;;;3.30;;
80136;SDS011;69466;55.948;37.484;2023-06-22T07:42:32;8.98;;;3.45;;
80136;SDS011;69466;55.948;37.484;2023-06-22T07:45:01;7.15;;;3.13;;
80136;SDS011;69466;55.948;37.484;2023-06-22T07:47:30;6.00;;;3.13;;
80136;SDS011;69466;55.948;37.484;2023-06-22T07:50:00;6.13;;;3.50;;
80136;SDS011;69466;55.948;37.484;2023-06-22T07:52:31;7.28;;;3.38;;
80136;SDS011;69466;55.948;37.484;2023-06-22T07:54:58;9.50;;;3.63;;
80136;SDS011;69466;55.948;37.484;2023-06-22T07:57:24;8.38;;;4.00;;
80136;SDS011;69466;55.948;37.484;2023-06-22T07:59:57;16.83;;;4.22;;
80136;SDS011;69466;55.948;37.484;2023-06-22T08:02:24;6.32;;;3.28;;
80136;SDS011;69466;55.948;37.484;2023-06-22T08:04:50;11.05;;;3.53;;
80136;SDS011;69466;55.948;37.484;2023-06-22T08:07:17;5.78;;;3.05;;
80136;SDS011;69466;55.948;37.484;2023-06-22T08:09:46;8.20;;;3.25;;
80136;SDS011;69466;55.948;37.484;2023-06-22T08:12:15;6.25;;;3.53;;
80136;SDS011;69466;55.948;37.484;2023-06-22T08:14:42;6.57;;;3.55;;
80136;SDS011;69466;55.948;37.484;2023-06-22T08:17:08;6.50;;;3.55;;
80136;SDS011;69466;55.948;37.484;2023-06-22T08:19:34;4.90;;;3.08;;
80136;SDS011;69466;55.948;37.484;2023-06-22T08:22:02;7.18;;;3.25;;
80136;SDS011;69466;55.948;37.484;2023-06-22T08:24:28;5.80;;;3.35;;
80136;SDS011;69466;55.948;37.484;2023-06-22T08:26:56;6.93;;;3.53;;
80136;SDS011;69466;55.948;37.484;2023-06-22T08:29:22;9.15;;;3.70;;
80136;SDS011;69466;55.948;37.484;2023-06-22T08:31:48;8.32;;;4.13;;
80136;SDS011;69466;55.948;37.484;2023-06-22T08:34:13;6.22;;;3.72;;
80136;SDS011;69466;55.948;37.484;2023-06-22T08:36:39;6.32;;;3.33;;
80136;SDS011;69466;55.948;37.484;2023-06-22T08:39:10;6.38;;;3.67;;
80136;SDS011;69466;55.948;37.484;2023-06-22T08:41:36;7.03;;;3.70;;
80136;SDS011;69466;55.948;37.484;2023-06-22T08:44:02;5.72;;;3.00;;
80136;SDS011;69466;55.948;37.484;2023-06-22T08:46:29;5.90;;;3.70;;
80136;SDS011;69466;55.948;37.484;2023-06-22T08:48:59;6.13;;;3.20;;
80136;SDS011;69466;55.948;37.484;2023-06-22T08:51:25;6.10;;;3.10;;
80136;SDS011;69466;55.948;37.484;2023-06-22T08:53:51;5.68;;;3.92;;
80136;SDS011;69466;55.948;37.484;2023-06-22T08:56:18;5.45;;;3.25;;
80136;SDS011;69466;55.948;37.484;2023-06-22T08:58:45;5.80;;;3.22;;
80136;SDS011;69466;55.948;37.484;2023-06-22T09:01:10;8.75;;;3.45;;
80136;SDS011;69466;55.948;37.484;2023-06-22T09:03:36;10.57;;;3.90;;
80136;SDS011;69466;55.948;37.484;2023-06-22T09:06:06;8.85;;;3.53;;
80136;SDS011;69466;55.948;37.484;2023-06-22T09:08:34;6.03;;;3.75;;
80136;SDS011;69466;55.948;37.484;2023-06-22T09:11:01;6.53;;;3.60;;
80136;SDS011;69466;55.948;37.484;2023-06-22T09:13:30;10.50;;;4.20;;
80136;SDS011;69466;55.948;37.484;2023-06-22T09:15:56;9.38;;;4.25;;
80136;SDS011;69466;55.948;37.484;2023-06-22T09:18:22;6.00;;;4.22;;
80136;SDS011;69466;55.948;37.484;2023-06-22T09:20:48;6.20;;;3.30;;
80136;SDS011;69466;55.948;37.484;2023-06-22T09:23:14;8.25;;;3.78;;
80136;SDS011;69466;55.948;37.484;2023-06-22T09:25:40;7.00;;;3.75;;
80136;SDS011;69466;55.948;37.484;2023-06-22T09:28:06;6.63;;;4.10;;
80136;SDS011;69466;55.948;37.484;2023-06-22T09:30:32;7.78;;;3.95;;
80136;SDS011;69466;55.948;37.484;2023-06-22T09:32:58;6.13;;;3.90;;
80136;SDS011;69466;55.948;37.484;2023-06-22T09:35:26;6.25;;;3.67;;
80136;SDS011;69466;55.948;37.484;2023-06-22T09:37:52;5.47;;;3.80;;
80136;SDS011;69466;55.948;37.484;2023-06-22T09:40:18;6.65;;;3.65;;
80136;SDS011;69466;55.948;37.484;2023-06-22T09:42:44;5.65;;;3.70;;
80136;SDS011;69466;55.948;37.484;2023-06-22T09:45:10;6.38;;;3.63;;
80136;SDS011;69466;55.948;37.484;2023-06-22T09:47:36;8.30;;;4.20;;
80136;SDS011;69466;55.948;37.484;2023-06-22T09:50:02;5.85;;;4.10;;
80136;SDS011;69466;55.948;37.484;2023-06-22T09:52:30;7.00;;;4.45;;
80136;SDS011;69466;55.948;37.484;2023-06-22T09:54:56;9.50;;;3.78;;
80136;SDS011;69466;55.948;37.484;2023-06-22T09:57:22;7.70;;;4.40;;
80136;SDS011;69466;55.948;37.484;2023-06-22T09:59:48;10.27;;;3.47;;
80136;SDS011;69466;55.948;37.484;2023-06-22T10:02:13;8.32;;;3.90;;
80136;SDS011;69466;55.948;37.484;2023-06-22T10:04:39;7.20;;;4.55;;
80136;SDS011;69466;55.948;37.484;2023-06-22T10:07:05;8.15;;;5.00;;
80136;SDS011;69466;55.948;37.484;2023-06-22T10:09:31;6.78;;;4.22;;
80136;SDS011;69466;55.948;37.484;2023-06-22T10:11:57;9.68;;;4.47;;
80136;SDS011;69466;55.948;37.484;2023-06-22T10:14:23;8.38;;;3.78;;
80136;SDS011;69466;55.948;37.484;2023-06-22T10:16:51;7.97;;;4.45;;
80136;SDS011;69466;55.948;37.484;2023-06-22T10:19:18;10.77;;;4.32;;
80136;SDS011;69466;55.948;37.484;2023-06-22T10:21:47;11.20;;;3.53;;
80136;SDS011;69466;55.948;37.484;2023-06-22T10:24:12;8.65;;;3.88;;
80136;SDS011;69466;55.948;37.484;2023-06-22T10:26:39;7.70;;;3.92;;
80136;SDS011;69466;55.948;37.484;2023-06-22T10:29:04;7.05;;;3.50;;
80136;SDS011;69466;55.948;37.484;2023-06-22T10:31:30;6.43;;;3.72;;
80136;SDS011;69466;55.948;37.484;2023-06-22T10:33:56;6.35;;;3.70;;
80136;SDS011;69466;55.948;37.484;2023-06-22T10:36:22;5.95;;;4.00;;
80136;SDS011;69466;55.948;37.484;2023-06-22T10:38:48;8.73;;;4.18;;
80136;SDS011;69466;55.948;37.484;2023-06-22T10:41:14;7.93;;;4.10;;
80136;SDS011;69466;55.948;37.484;2023-06-22T10:43:41;6.10;;;3.47;;
80136;SDS011;69466;55.948;37.484;2023-06-22T10:46:07;7.22;;;4.05;;
80136;SDS011;69466;55.948;37.484;2023-06-22T10:48:33;9.80;;;4.18;;
80136;SDS011;69466;55.948;37.484;2023-06-22T10:50:59;9.00;;;4.70;;
80136;SDS011;69466;55.948;37.484;2023-06-22T10:53:25;9.13;;;4.90;;
80136;SDS011;69466;55.948;37.484;2023-06-22T10:55:51;6.47;;;4.03;;
80136;SDS011;69466;55.948;37.484;2023-06-22T10:58:18;8.50;;;4.05;;
80136;SDS011;69466;55.948;37.484;2023-06-22T11:00:45;5.53;;;3.50;;
80136;SDS011;69466;55.948;37.484;2023-06-22T11:03:11;6.32;;;3.67;;
80136;SDS011;69466;55.948;37.484;2023-06-22T11:05:37;6.22;;;3.75;;
80136;SDS011;69466;55.948;37.484;2023-06-22T11:08:07;7.22;;;4.00;;
80136;SDS011;69466;55.948;37.484;2023-06-22T11:10:33;5.53;;;3.65;;
80136;SDS011;69466;55.948;37.484;2023-06-22T11:12:58;7.28;;;4.40;;
80136;SDS011;69466;55.948;37.484;2023-06-22T11:15:25;18.00;;;14.25;;
80136;SDS011;69466;55.948;37.484;2023-06-22T11:17:51;9.25;;;5.10;;
80136;SDS011;69466;55.948;37.484;2023-06-22T11:20:17;6.40;;;3.97;;
80136;SDS011;69466;55.948;37.484;2023-06-22T11:22:42;7.55;;;4.50;;
80136;SDS011;69466;55.948;37.484;2023-06-22T11:25:09;6.68;;;4.50;;
80136;SDS011;69466;55.948;37.484;2023-06-22T11:27:37;6.85;;;3.40;;
80136;SDS011;69466;55.948;37.484;2023-06-22T11:30:03;6.15;;;3.80;;
80136;SDS011;69466;55.948;37.484;2023-06-22T11:32:30;6.55;;;3.28;;
80136;SDS011;69466;55.948;37.484;2023-06-22T11:34:56;7.47;;;4.07;;
80136;SDS011;69466;55.948;37.484;2023-06-22T11:37:22;7.80;;;3.95;;
80136;SDS011;69466;55.948;37.484;2023-06-22T11:39:48;7.20;;;3.70;;
80136;SDS011;69466;55.948;37.484;2023-06-22T11:42:14;8.40;;;3.97;;
80136;SDS011;69466;55.948;37.484;2023-06-22T11:44:41;7.95;;;4.75;;
80136;SDS011;69466;55.948;37.484;2023-06-22T11:47:10;10.57;;;4.25;;
80136;SDS011;69466;55.948;37.484;2023-06-22T11:49:36;8.35;;;4.65;;
80136;SDS011;69466;55.948;37.484;2023-06-22T11:52:02;8.05;;;4.50;;
80136;SDS011;69466;55.948;37.484;2023-06-22T11:54:28;8.90;;;4.28;;
80136;SDS011;69466;55.948;37.484;2023-06-22T11:56:54;9.32;;;4.00;;
80136;SDS011;69466;55.948;37.484;2023-06-22T11:59:20;8.45;;;4.22;;
80136;SDS011;69466;55.948;37.484;2023-06-22T12:01:48;8.93;;;4.00;;
80136;SDS011;69466;55.948;37.484;2023-06-22T12:04:18;8.15;;;4.25;;
80136;SDS011;69466;55.948;37.484;2023-06-22T12:06:43;8.80;;;4.25;;
80136;SDS011;69466;55.948;37.484;2023-06-22T12:09:14;9.73;;;4.68;;
80136;SDS011;69466;55.948;37.484;2023-06-22T12:11:40;8.18;;;4.55;;
80136;SDS011;69466;55.948;37.484;2023-06-22T12:14:06;6.85;;;4.15;;
80136;SDS011;69466;55.948;37.484;2023-06-22T12:16:32;8.48;;;4.43;;
80136;SDS011;69466;55.948;37.484;2023-06-22T12:18:58;7.05;;;4.28;;
80136;SDS011;69466;55.948;37.484;2023-06-22T12:21:24;11.95;;;4.60;;
80136;SDS011;69466;55.948;37.484;2023-06-22T12:23:50;6.32;;;3.90;;
80136;SDS011;69466;55.948;37.484;2023-06-22T12:26:16;7.32;;;4.93;;
80136;SDS011;69466;55.948;37.484;2023-06-22T12:28:42;7.15;;;4.78;;
80136;SDS011;69466;55.948;37.484;2023-06-22T12:31:08;8.13;;;4.25;;
80136;SDS011;69466;55.948;37.484;2023-06-22T12:33:34;5.88;;;4.00;;
80136;SDS011;69466;55.948;37.484;2023-06-22T12:35:59;16.95;;;5.03;;
80136;SDS011;69466;55.948;37.484;2023-06-22T12:38:30;7.75;;;4.57;;
80136;SDS011;69466;55.948;37.484;2023-06-22T12:40:56;7.13;;;3.92;;
80136;SDS011;69466;55.948;37.484;2023-06-22T12:43:22;8.02;;;5.68;;
80136;SDS011;69466;55.948;37.484;2023-06-22T12:45:47;6.82;;;4.22;;
80136;SDS011;69466;55.948;37.484;2023-06-22T12:48:13;11.70;;;5.93;;
80136;SDS011;69466;55.948;37.484;2023-06-22T12:50:39;7.43;;;4.07;;
80136;SDS011;69466;55.948;37.484;2023-06-22T12:53:05;10.48;;;4.80;;
80136;SDS011;69466;55.948;37.484;2023-06-22T12:55:31;6.90;;;4.53;;
80136;SDS011;69466;55.948;37.484;2023-06-22T12:57:57;6.50;;;3.97;;
80136;SDS011;69466;55.948;37.484;2023-06-22T13:00:24;6.47;;;4.40;;
80136;SDS011;69466;55.948;37.484;2023-06-22T13:02:50;5.93;;;3.90;;
80136;SDS011;69466;55.948;37.484;2023-06-22T13:05:15;8.63;;;4.18;;
80136;SDS011;69466;55.948;37.484;2023-06-22T13:07:42;6.45;;;4.40;;
80136;SDS011;69466;55.948;37.484;2023-06-22T13:10:08;10.85;;;5.55;;
80136;SDS011;69466;55.948;37.484;2023-06-22T13:12:34;6.82;;;4.75;;
80136;SDS011;69466;55.948;37.484;2023-06-22T13:15:00;9.00;;;4.45;;
80136;SDS011;69466;55.948;37.484;2023-06-22T13:17:30;5.95;;;4.07;;
80136;SDS011;69466;55.948;37.484;2023-06-22T13:19:56;7.07;;;4.78;;
80136;SDS011;69466;55.948;37.484;2023-06-22T13:22:31;6.90;;;4.30;;
80136;SDS011;69466;55.948;37.484;2023-06-22T13:25:08;7.57;;;3.97;;
80136;SDS011;69466;55.948;37.484;2023-06-22T13:27:40;6.28;;;3.72;;
80136;SDS011;69466;55.948;37.484;2023-06-22T13:30:07;6.13;;;3.95;;
80136;SDS011;69466;55.948;37.484;2023-06-22T13:32:34;7.30;;;3.95;;
80136;SDS011;69466;55.948;37.484;2023-06-22T13:35:00;7.45;;;3.60;;
80136;SDS011;69466;55.948;37.484;2023-06-22T13:37:26;7.65;;;4.68;;
80136;SDS011;69466;55.948;37.484;2023-06-22T13:39:52;7.22;;;4.63;;
80136;SDS011;69466;55.948;37.484;2023-06-22T13:42:18;7.55;;;4.57;;
80136;SDS011;69466;55.948;37.484;2023-06-22T13:44:44;7.15;;;4.40;;
80136;SDS011;69466;55.948;37.484;2023-06-22T13:47:10;5.18;;;3.60;;
80136;SDS011;69466;55.948;37.484;2023-06-22T13:49:35;9.05;;;4.70;;
80136;SDS011;69466;55.948;37.484;2023-06-22T13:52:01;6.63;;;3.95;;
80136;SDS011;69466;55.948;37.484;2023-06-22T13:54:29;7.28;;;4.10;;
80136;SDS011;69466;55.948;37.484;2023-06-22T13:56:55;6.53;;;3.50;;
80136;SDS011;69466;55.948;37.484;2023-06-22T13:59:21;8.30;;;4.40;;
80136;SDS011;69466;55.948;37.484;2023-06-22T14:01:47;11.05;;;4.30;;
80136;SDS011;69466;55.948;37.484;2023-06-22T14:04:13;8.75;;;4.32;;
80136;SDS011;69466;55.948;37.484;2023-06-22T14:06:39;7.15;;;4.70;;
80136;SDS011;69466;55.948;37.484;2023-06-22T14:09:04;7.45;;;4.40;;
80136;SDS011;69466;55.948;37.484;2023-06-22T14:11:30;11.68;;;5.13;;
80136;SDS011;69466;55.948;37.484;2023-06-22T14:13:58;9.75;;;4.45;;
80136;SDS011;69466;55.948;37.484;2023-06-22T14:16:25;8.85;;;4.10;;
80136;SDS011;69466;55.948;37.484;2023-06-22T14:18:51;9.32;;;4.05;;
80136;SDS011;69466;55.948;37.484;2023-06-22T14:21:17;8.65;;;4.13;;
80136;SDS011;69466;55.948;37.484;2023-06-22T14:23:44;9.55;;;4.22;;
80136;SDS011;69466;55.948;37.484;2023-06-22T14:26:17;7.13;;;3.53;;
80136;SDS011;69466;55.948;37.484;2023-06-22T14:28:47;8.38;;;4.65;;
80136;SDS011;69466;55.948;37.484;2023-06-22T14:31:18;8.73;;;4.63;;
80136;SDS011;69466;55.948;37.484;2023-06-22T14:33:46;8.38;;;3.90;;